createdAt,value
2023-04-03T00:02:14.437Z,46.06
2023-04-03T00:04:41.957Z,45.72
2023-04-03T00:07:09.374Z,46.07
2023-04-03T00:09:37.964Z,46.23
2023-04-03T00:12:05.433Z,45.87
2023-04-03T00:14:32.735Z,45.69
2023-04-03T00:16:59.920Z,44.79
2023-04-03T00:19:27.090Z,44.60
2023-04-03T00:21:54.207Z,44.57
2023-04-03T00:24:21.275Z,44.38
2023-04-03T00:26:50.063Z,43.93
2023-04-03T00:29:17.295Z,44.46
2023-04-03T00:31:44.396Z,43.86
2023-04-03T00:34:11.616Z,43.49
2023-04-03T00:36:38.796Z,43.51
2023-04-03T00:39:05.982Z,43.45
2023-04-03T00:41:33.117Z,43.48
2023-04-03T00:44:01.658Z,43.74
2023-04-03T00:46:28.810Z,43.46
2023-04-03T00:48:56.069Z,44.03
2023-04-03T00:51:27.284Z,44.02
2023-04-03T00:53:59.726Z,44.46
2023-04-03T00:56:30.889Z,44.11
2023-04-03T00:59:05.049Z,44.42
2023-04-03T01:01:32.592Z,44.72
2023-04-03T01:04:00.957Z,44.62
2023-04-03T01:06:32.062Z,45.01
2023-04-03T01:09:00.271Z,44.82
2023-04-03T01:11:27.595Z,44.67
2023-04-03T01:13:55.271Z,44.42
2023-04-03T01:16:23.987Z,44.92
2023-04-03T01:18:51.598Z,44.20
2023-04-03T01:21:55.285Z,44.70
2023-04-03T01:24:34.170Z,44.16
2023-04-03T01:27:05.149Z,44.16
2023-04-03T01:29:32.776Z,43.99
2023-04-03T01:32:03.406Z,44.53
2023-04-03T01:34:32.157Z,57.28
2023-04-03T01:36:59.417Z,52.71
2023-04-03T01:39:26.618Z,51.06
2023-04-03T01:41:54.092Z,48.58
2023-04-03T01:44:21.956Z,48.94
2023-04-03T01:46:49.191Z,46.79
2023-04-03T01:49:17.761Z,48.13
2023-04-03T01:51:44.833Z,47.11
2023-04-03T01:54:12.054Z,46.29
2023-04-03T01:56:39.233Z,46.06
2023-04-03T01:59:06.453Z,45.54
2023-04-03T02:01:33.603Z,43.67
2023-04-03T02:04:00.804Z,44.23
2023-04-03T02:06:29.477Z,43.28
2023-04-03T02:08:56.714Z,42.65
2023-04-03T02:11:23.809Z,42.93
2023-04-03T02:13:51.032Z,41.76
2023-04-03T02:16:18.277Z,41.84
2023-04-03T02:18:45.435Z,41.54
2023-04-03T02:21:12.637Z,42.32
2023-04-03T02:23:41.622Z,41.64
2023-04-03T02:26:10.969Z,41.75
2023-04-03T02:28:38.674Z,40.64
2023-04-03T02:31:07.204Z,40.71
2023-04-03T02:33:34.465Z,40.82
2023-04-03T02:36:01.740Z,41.46
2023-04-03T02:38:28.949Z,41.59
2023-04-03T02:41:03.116Z,40.82
2023-04-03T02:43:30.372Z,40.16
2023-04-03T02:45:57.568Z,41.02
2023-04-03T02:48:25.328Z,40.12
2023-04-03T02:50:52.412Z,40.51
2023-04-03T02:53:19.953Z,41.24
2023-04-03T02:55:47.594Z,41.24
2023-04-03T02:58:16.239Z,40.11
2023-04-03T03:00:43.617Z,40.72
2023-04-03T03:03:10.872Z,41.84
2023-04-03T03:05:38.072Z,41.65
2023-04-03T03:08:05.193Z,40.41
2023-04-03T03:10:32.296Z,41.28
2023-04-03T03:12:59.473Z,41.39
2023-04-03T03:15:28.033Z,40.80
2023-04-03T03:17:55.200Z,41.71
2023-04-03T03:20:22.404Z,41.10
2023-04-03T03:22:49.600Z,41.89
2023-04-03T03:25:16.976Z,42.55
2023-04-03T03:27:44.131Z,41.48
2023-04-03T03:30:12.030Z,40.22
2023-04-03T03:32:40.640Z,42.55
2023-04-03T03:35:08.981Z,42.40
2023-04-03T03:37:36.146Z,41.77
2023-04-03T03:40:03.653Z,41.98
2023-04-03T03:42:31.050Z,41.63
2023-04-03T03:44:58.160Z,41.16
2023-04-03T03:47:25.421Z,42.81
2023-04-03T03:49:54.050Z,41.95
2023-04-03T03:52:21.192Z,42.20
2023-04-03T03:54:48.451Z,41.28
2023-04-03T03:57:15.662Z,41.68
2023-04-03T03:59:42.773Z,41.98
2023-04-03T04:02:10.117Z,42.47
2023-04-03T04:04:37.511Z,42.37
2023-04-03T04:07:05.994Z,41.78
2023-04-03T04:09:33.175Z,41.82
2023-04-03T04:12:00.255Z,41.97
2023-04-03T04:14:27.323Z,41.72
2023-04-03T04:16:54.746Z,42.30
2023-04-03T04:19:21.860Z,41.32
2023-04-03T04:21:48.902Z,42.57
2023-04-03T04:24:17.481Z,42.03
2023-04-03T04:26:44.576Z,41.83
2023-04-03T04:29:11.893Z,41.65
2023-04-03T04:31:38.935Z,41.46
2023-04-03T04:34:06.024Z,41.47
2023-04-03T04:36:33.343Z,40.36
2023-04-03T04:39:00.692Z,41.70
2023-04-03T04:41:29.369Z,42.22
2023-04-03T04:43:56.553Z,41.45
2023-04-03T04:46:24.151Z,41.44
2023-04-03T04:48:51.432Z,41.23
2023-04-03T04:51:18.759Z,41.52
2023-04-03T04:53:45.855Z,41.62
2023-04-03T04:56:13.251Z,41.90
2023-04-03T04:58:41.773Z,41.39
2023-04-03T05:01:11.197Z,40.40
2023-04-03T05:03:38.814Z,42.21
2023-04-03T05:06:06.217Z,43.00
2023-04-03T05:08:33.714Z,42.07
2023-04-03T05:11:00.956Z,42.08
2023-04-03T05:13:28.095Z,41.95
2023-04-03T05:15:56.753Z,42.51
2023-04-03T05:18:24.001Z,42.38
2023-04-03T05:20:51.394Z,42.18
2023-04-03T05:23:18.864Z,40.81
2023-04-03T05:25:46.020Z,42.58
2023-04-03T05:28:13.296Z,41.48
2023-04-03T05:30:40.461Z,42.53
2023-04-03T05:33:09.069Z,42.84
2023-04-03T05:35:37.920Z,41.56
2023-04-03T05:38:05.457Z,41.90
2023-04-03T05:40:32.653Z,42.30
2023-04-03T05:42:59.852Z,42.33
2023-04-03T05:45:27.274Z,41.14
2023-04-03T05:47:54.628Z,41.84
2023-04-03T05:50:23.592Z,39.95
2023-04-03T05:52:55.552Z,41.42
2023-04-03T05:55:22.790Z,41.56
2023-04-03T05:57:49.992Z,41.78
2023-04-03T06:00:17.990Z,41.40
2023-04-03T06:02:45.442Z,40.93
2023-04-03T06:05:12.656Z,40.13
2023-04-03T06:07:41.509Z,41.41
2023-04-03T06:10:09.795Z,39.63
2023-04-03T06:12:36.989Z,40.19
2023-04-03T06:15:05.215Z,40.31
2023-04-03T06:17:32.415Z,40.77
2023-04-03T06:19:59.528Z,39.12
2023-04-03T06:22:26.795Z,39.73
2023-04-03T06:24:55.390Z,39.76
2023-04-03T06:27:22.730Z,38.21
2023-04-03T06:29:49.931Z,37.01
2023-04-03T06:32:17.270Z,37.18
2023-04-03T06:34:44.732Z,38.66
2023-04-03T06:37:15.849Z,41.08
2023-04-03T06:39:43.072Z,35.89
2023-04-03T06:42:11.724Z,36.59
2023-04-03T06:44:38.999Z,36.60
2023-04-03T06:47:06.249Z,35.20
2023-04-03T06:49:33.473Z,35.57
2023-04-03T06:52:02.429Z,34.59
2023-04-03T06:54:30.052Z,36.07
2023-04-03T06:56:57.161Z,38.02
2023-04-03T06:59:25.869Z,36.38
2023-04-03T07:01:53.228Z,35.34
2023-04-03T07:04:20.543Z,35.15
2023-04-03T07:06:48.315Z,33.69
2023-04-03T07:09:16.273Z,33.96
2023-04-03T07:11:43.430Z,35.52
2023-04-03T07:14:10.787Z,34.50
2023-04-03T07:16:41.050Z,33.76
2023-04-03T07:19:10.065Z,34.36
2023-04-03T07:21:37.328Z,35.33
2023-04-03T07:24:04.690Z,35.27
2023-04-03T07:26:31.917Z,34.16
2023-04-03T07:28:59.200Z,35.99
2023-04-03T07:31:26.528Z,32.98
2023-04-03T07:33:55.464Z,35.58
2023-04-03T07:36:24.235Z,36.43
2023-04-03T07:38:51.554Z,34.37
2023-04-03T07:41:20.655Z,35.63
2023-04-03T07:43:47.841Z,32.73
2023-04-03T07:46:15.122Z,35.54
2023-04-03T07:48:42.678Z,35.81
2023-04-03T07:51:11.260Z,34.56
2023-04-03T07:53:38.467Z,34.36
2023-04-03T07:56:05.933Z,34.14
2023-04-03T07:58:33.214Z,32.31
2023-04-03T08:01:01.125Z,33.71
2023-04-03T08:03:28.355Z,32.25
2023-04-03T08:05:55.665Z,34.73
2023-04-03T08:08:24.643Z,35.70
2023-04-03T08:10:53.485Z,32.37
2023-04-03T08:13:21.190Z,32.07
2023-04-03T08:15:48.735Z,34.19
2023-04-03T08:18:16.478Z,33.72
2023-04-03T08:20:44.729Z,33.81
2023-04-03T08:23:12.000Z,32.91
2023-04-03T08:25:41.271Z,32.34
2023-04-03T08:28:08.866Z,33.80
2023-04-03T08:30:36.440Z,34.71
2023-04-03T08:33:04.137Z,32.47
2023-04-03T08:35:31.548Z,32.54
2023-04-03T08:37:59.075Z,34.07
2023-04-03T08:40:26.334Z,32.17
2023-04-03T08:43:20.740Z,31.79
2023-04-03T08:45:53.634Z,31.93
2023-04-03T08:48:28.818Z,34.75
2023-04-03T08:51:03.636Z,34.00
2023-04-03T08:53:37.353Z,32.28
2023-04-03T08:56:10.111Z,33.92
2023-04-03T08:58:48.906Z,34.22
2023-04-03T09:01:24.266Z,32.84
2023-04-03T09:03:51.569Z,32.46
2023-04-03T09:06:22.798Z,32.52
2023-04-03T09:09:01.675Z,34.61
2023-04-03T09:11:44.135Z,32.66
2023-04-03T09:14:24.560Z,31.48
2023-04-03T09:16:59.202Z,31.36
2023-04-03T09:19:39.534Z,34.15
2023-04-03T09:22:18.353Z,32.68
2023-04-03T09:24:51.537Z,30.72
2023-04-03T09:27:18.787Z,31.94
2023-04-03T09:29:47.711Z,33.95
2023-04-03T09:32:26.414Z,31.62
2023-04-03T09:34:59.629Z,34.90
2023-04-03T09:37:39.901Z,30.93
2023-04-03T09:40:33.863Z,32.84
2023-04-03T09:43:03.279Z,31.75
2023-04-03T09:45:35.579Z,32.84
2023-04-03T09:48:10.519Z,30.42
2023-04-03T09:50:58.686Z,30.96
2023-04-03T09:53:32.769Z,30.27
2023-04-03T09:56:02.396Z,32.18
2023-04-03T09:58:42.661Z,31.57
2023-04-03T10:01:27.343Z,31.55
2023-04-03T10:04:13.913Z,29.59
2023-04-03T10:06:43.677Z,30.10
2023-04-03T10:09:21.037Z,32.00
2023-04-03T10:12:01.634Z,30.87
2023-04-03T10:14:30.400Z,31.83
2023-04-03T10:17:11.691Z,31.07
2023-04-03T10:19:44.694Z,32.15
2023-04-03T10:22:21.296Z,34.15
2023-04-03T10:25:02.332Z,31.92
2023-04-03T10:27:43.327Z,33.79
2023-04-03T10:30:29.531Z,36.30
2023-04-03T10:33:19.595Z,31.73
2023-04-03T10:36:00.254Z,32.42
2023-04-03T10:38:39.788Z,30.22
2023-04-03T10:41:18.107Z,33.41
2023-04-03T10:43:55.129Z,32.04
2023-04-03T10:46:33.099Z,30.48
2023-04-03T10:49:21.200Z,33.73
2023-04-03T10:51:55.072Z,32.05
2023-04-03T10:54:27.271Z,30.72
2023-04-03T10:57:10.831Z,28.92
2023-04-03T10:59:45.884Z,28.97
2023-04-03T11:02:23.697Z,32.39
2023-04-03T11:04:58.634Z,30.09
2023-04-03T11:07:29.916Z,31.77
2023-04-03T11:10:04.140Z,31.45
2023-04-03T11:12:42.236Z,31.17
2023-04-03T11:15:16.576Z,32.84
2023-04-03T11:17:53.308Z,30.30
2023-04-03T11:20:29.433Z,30.20
2023-04-03T11:23:02.487Z,31.58
2023-04-03T11:25:33.463Z,29.97
2023-04-03T11:28:03.538Z,31.83
2023-04-03T11:30:44.804Z,28.82
2023-04-03T11:33:34.662Z,30.76
2023-04-03T11:36:24.966Z,29.83
2023-04-03T11:38:59.342Z,32.42
2023-04-03T11:41:30.016Z,33.65
2023-04-03T11:44:00.521Z,32.57
2023-04-03T11:46:56.500Z,30.14
2023-04-03T11:49:57.341Z,29.80
2023-04-03T11:52:59.843Z,32.08
2023-04-03T11:55:56.034Z,30.08
2023-04-03T11:58:24.531Z,32.12
2023-04-03T12:00:58.845Z,29.28
2023-04-03T12:04:09.793Z,28.73
2023-04-03T12:06:53.823Z,31.41
2023-04-03T12:09:28.234Z,29.28
2023-04-03T12:11:57.624Z,30.62
2023-04-03T12:14:26.730Z,28.78
2023-04-03T12:16:56.053Z,29.85
2023-04-03T12:22:12.870Z,30.06
2023-04-03T12:24:42.497Z,30.63
2023-04-03T12:27:39.480Z,29.96
2023-04-03T12:30:19.888Z,28.64
2023-04-03T12:33:18.057Z,28.39
2023-04-03T12:36:00.031Z,29.99
2023-04-03T12:38:59.235Z,30.34
2023-04-03T12:41:44.975Z,29.35
2023-04-03T12:44:41.893Z,29.95
2023-04-03T12:47:24.635Z,30.94
2023-04-03T12:49:53.277Z,30.21
2023-04-03T12:52:32.893Z,31.34
2023-04-03T12:55:02.174Z,29.19
2023-04-03T12:57:31.598Z,30.84
2023-04-03T12:59:59.592Z,29.65
2023-04-03T13:02:29.416Z,30.17
2023-04-03T13:05:00.477Z,30.84
2023-04-03T13:07:32.561Z,30.52
2023-04-03T13:10:02.101Z,32.34
2023-04-03T13:12:32.283Z,30.10
2023-04-03T13:15:02.895Z,30.36
2023-04-03T13:17:30.178Z,29.19
2023-04-03T13:20:12.137Z,29.48
2023-04-03T13:22:46.971Z,29.98
2023-04-03T13:25:17.831Z,36.95
2023-04-03T13:30:25.111Z,30.36
2023-04-03T13:32:52.616Z,29.58
2023-04-03T13:35:39.292Z,31.50
2023-04-03T13:38:25.223Z,31.02
2023-04-03T13:40:54.651Z,31.05
2023-04-03T13:43:26.286Z,31.50
2023-04-03T13:46:01.473Z,32.77
2023-04-03T13:48:37.278Z,32.79
2023-04-03T13:51:08.232Z,32.16
2023-04-03T13:53:44.831Z,33.68
2023-04-03T13:56:22.100Z,34.98
2023-04-03T13:59:07.501Z,32.76
2023-04-03T14:01:42.094Z,33.08
2023-04-03T14:04:17.702Z,31.94
2023-04-03T14:06:45.089Z,32.15
2023-04-03T14:09:12.872Z,32.47
2023-04-03T14:11:41.070Z,31.39
2023-04-03T14:14:15.892Z,32.76
2023-04-03T14:16:46.119Z,33.03
2023-04-03T14:19:21.010Z,33.56
2023-04-03T14:21:48.406Z,33.35
2023-04-03T14:24:15.553Z,33.26
2023-04-03T14:26:42.730Z,32.97
2023-04-03T14:29:13.150Z,32.64
2023-04-03T14:31:40.990Z,33.06
2023-04-03T14:34:08.322Z,33.28
2023-04-03T14:36:35.868Z,33.52
2023-04-03T14:39:05.848Z,34.06
2023-04-03T14:41:34.109Z,33.61
2023-04-03T14:44:01.435Z,32.94
2023-04-03T14:46:48.421Z,32.40
2023-04-03T14:49:25.240Z,32.66
2023-04-03T14:51:52.532Z,32.36
2023-04-03T14:54:22.933Z,35.94
2023-04-03T14:56:50.254Z,34.30
2023-04-03T14:59:17.571Z,33.43
2023-04-03T15:01:46.118Z,32.65
2023-04-03T15:04:16.087Z,32.06
2023-04-03T15:06:43.988Z,33.34
2023-04-03T15:09:21.172Z,32.82
2023-04-03T15:11:48.757Z,32.91
2023-04-03T15:14:24.324Z,32.20
2023-04-03T15:17:05.025Z,32.29
2023-04-03T15:19:38.411Z,32.59
2023-04-03T15:22:05.988Z,31.66
2023-04-03T15:24:33.162Z,32.07
2023-04-03T15:27:02.450Z,31.84
2023-04-03T15:29:31.092Z,31.44
2023-04-03T15:31:58.393Z,31.11
2023-04-03T15:34:27.274Z,32.21
2023-04-03T15:36:54.561Z,31.89
2023-04-03T15:39:22.016Z,32.41
2023-04-03T15:41:49.197Z,32.94
2023-04-03T15:44:16.893Z,32.27
2023-04-03T15:46:44.393Z,32.12
2023-04-03T15:49:12.192Z,32.60
2023-04-03T15:51:40.873Z,31.26
2023-04-03T15:54:08.313Z,31.02
2023-04-03T15:56:35.485Z,32.47
2023-04-03T15:59:03.153Z,32.12
2023-04-03T16:01:30.698Z,31.41
2023-04-03T16:03:57.933Z,31.56
2023-04-03T16:06:26.914Z,31.77
2023-04-03T16:08:55.545Z,30.95
2023-04-03T16:11:22.688Z,31.91
2023-04-03T16:13:49.856Z,31.07
2023-04-03T16:16:17.316Z,31.62
2023-04-03T16:18:44.634Z,31.62
2023-04-03T16:21:11.873Z,30.91
2023-04-03T16:23:39.007Z,31.88
2023-04-03T16:26:07.701Z,31.52
2023-04-03T16:28:34.827Z,32.07
2023-04-03T16:31:03.235Z,32.62
2023-04-03T16:33:31.441Z,32.78
2023-04-03T16:35:58.690Z,33.44
2023-04-03T16:38:25.909Z,32.35
2023-04-03T16:40:53.235Z,32.27
2023-04-03T16:43:21.834Z,32.08
2023-04-03T16:45:48.955Z,31.85
2023-04-03T16:48:16.029Z,31.67
2023-04-03T16:50:43.281Z,31.61
2023-04-03T16:53:10.756Z,31.76
2023-04-03T16:55:37.853Z,30.72
2023-04-03T16:58:05.112Z,31.82
2023-04-03T17:00:34.559Z,30.96
2023-04-03T17:03:01.750Z,31.14
2023-04-03T17:05:29.029Z,31.97
2023-04-03T17:07:56.234Z,31.50
2023-04-03T17:10:23.516Z,31.30
2023-04-03T17:12:50.612Z,31.75
2023-04-03T17:15:17.914Z,31.85
2023-04-03T17:17:47.113Z,31.70
2023-04-03T17:20:14.770Z,31.10
2023-04-03T17:22:42.194Z,31.49
2023-04-03T17:25:09.915Z,31.19
2023-04-03T17:27:37.132Z,30.98
2023-04-03T17:30:05.359Z,31.56
2023-04-03T17:32:32.590Z,32.19
2023-04-03T17:35:01.366Z,32.26
2023-04-03T17:37:28.847Z,31.80
2023-04-03T17:39:55.984Z,31.50
2023-04-03T17:42:23.152Z,30.64
2023-04-03T17:44:50.410Z,30.64
2023-04-03T17:47:17.490Z,31.15
2023-04-03T17:49:44.670Z,31.08
2023-04-03T17:52:13.151Z,31.82
2023-04-03T17:54:40.293Z,31.38
2023-04-03T17:57:07.490Z,31.65
2023-04-03T17:59:34.734Z,31.56
2023-04-03T18:02:02.055Z,32.28
2023-04-03T18:04:29.332Z,32.07
2023-04-03T18:06:56.859Z,46.68
2023-04-03T18:09:32.223Z,31.73
2023-04-03T18:12:03.733Z,32.24
2023-04-03T18:14:34.072Z,32.67
2023-04-03T18:17:01.329Z,33.17
2023-04-03T18:19:30.134Z,33.43
2023-04-03T18:22:01.639Z,33.50
2023-04-03T18:24:34.433Z,33.58
2023-04-03T18:27:05.300Z,34.01
2023-04-03T18:29:36.745Z,34.06
2023-04-03T18:32:04.668Z,34.12
2023-04-03T18:34:33.312Z,34.11
2023-04-03T18:37:00.523Z,34.53
2023-04-03T18:39:29.190Z,34.13
2023-04-03T18:41:59.850Z,34.70
2023-04-03T18:44:28.751Z,34.61
2023-04-03T18:46:56.360Z,36.04
2023-04-03T18:49:23.851Z,35.50
2023-04-03T18:51:51.092Z,35.99
2023-04-03T18:54:18.273Z,35.58
2023-04-03T18:56:46.872Z,40.58
2023-04-03T18:59:14.745Z,35.92
2023-04-03T19:01:42.652Z,35.62
2023-04-03T19:04:09.869Z,35.69
2023-04-03T19:06:38.270Z,34.78
2023-04-03T19:09:07.802Z,35.36
2023-04-03T19:11:36.017Z,35.60
2023-04-03T19:14:15.352Z,34.65
2023-04-03T19:16:44.870Z,35.54
2023-04-03T19:19:12.452Z,35.31
2023-04-03T19:21:39.611Z,34.69
2023-04-03T19:24:07.880Z,35.49
2023-04-03T19:26:35.212Z,35.45
2023-04-03T19:29:02.408Z,35.69
2023-04-03T19:34:03.911Z,36.49
2023-04-03T19:36:32.366Z,32.81
2023-04-03T19:38:59.653Z,30.48
2023-04-03T19:41:31.533Z,27.83
2023-04-03T19:43:58.811Z,29.10
2023-04-03T19:46:28.737Z,29.97
2023-04-03T19:48:57.506Z,30.34
2023-04-03T19:51:25.286Z,31.69
2023-04-03T19:53:52.614Z,31.86
2023-04-03T19:56:20.003Z,32.23
2023-04-03T19:58:47.466Z,33.01
2023-04-03T20:01:14.627Z,33.46
2023-04-03T20:03:41.850Z,33.75
2023-04-03T20:06:10.501Z,34.31
2023-04-03T20:08:37.706Z,34.48
2023-04-03T20:11:05.134Z,34.61
2023-04-03T20:13:32.311Z,34.39
2023-04-03T20:16:02.908Z,35.08
2023-04-03T20:18:30.329Z,35.62
2023-04-03T20:20:59.752Z,35.34
2023-04-03T20:23:29.679Z,36.01
2023-04-03T20:26:09.294Z,35.08
2023-04-03T20:28:37.736Z,34.70
2023-04-03T20:31:06.349Z,35.65
2023-04-03T20:33:33.754Z,35.75
2023-04-03T20:36:01.128Z,35.78
2023-04-03T20:38:30.318Z,36.07
2023-04-03T20:40:57.547Z,35.68
2023-04-03T20:43:24.772Z,35.86
2023-04-03T20:45:52.295Z,35.92
2023-04-03T20:48:19.634Z,36.42
2023-04-03T20:50:47.103Z,36.08
2023-04-03T20:53:15.328Z,35.73
2023-04-03T20:55:43.968Z,35.85
2023-04-03T20:58:11.258Z,35.51
2023-04-03T21:00:38.652Z,35.26
2023-04-03T21:03:06.396Z,35.62
2023-04-03T21:05:35.374Z,36.31
2023-04-03T21:08:39.592Z,35.84
2023-04-03T21:11:43.908Z,35.78
2023-04-03T21:14:48.232Z,36.72
2023-04-03T21:17:15.149Z,36.49
2023-04-03T21:19:43.884Z,36.44
2023-04-03T21:22:11.394Z,35.81
2023-04-03T21:24:38.935Z,36.34
2023-04-03T21:27:06.396Z,36.11
2023-04-03T21:29:33.684Z,35.65
2023-04-03T21:32:01.444Z,36.23
2023-04-03T21:34:29.977Z,35.55
2023-04-03T21:37:03.701Z,35.97
2023-04-03T21:39:31.082Z,35.89
2023-04-03T21:41:58.300Z,35.38
2023-04-03T21:44:25.833Z,35.69
2023-04-03T21:46:53.357Z,36.55
2023-04-03T21:49:21.076Z,36.49
2023-04-03T21:51:48.438Z,36.51
2023-04-03T21:54:17.611Z,36.91
2023-04-03T21:56:44.889Z,36.16
2023-04-03T21:59:12.680Z,36.78
2023-04-03T22:01:40.383Z,37.11
2023-04-03T22:04:07.699Z,36.82
2023-04-03T22:06:34.971Z,36.42
2023-04-03T22:09:02.071Z,36.49
2023-04-03T22:11:30.791Z,36.57
2023-04-03T22:13:58.263Z,37.06
2023-04-03T22:16:25.472Z,36.80
2023-04-03T22:18:53.036Z,36.56
2023-04-03T22:21:20.310Z,36.83
2023-04-03T22:23:47.541Z,36.98
2023-04-03T22:26:14.789Z,36.78
2023-04-03T22:28:45.716Z,36.82
2023-04-03T22:31:13.940Z,36.83
2023-04-03T22:33:42.671Z,36.74
2023-04-03T22:36:11.226Z,36.64
2023-04-03T22:38:39.083Z,36.90
2023-04-03T22:41:08.004Z,36.46
2023-04-03T22:43:37.428Z,36.65
2023-04-03T22:46:08.844Z,36.61
2023-04-03T22:48:37.587Z,36.44
2023-04-03T22:51:05.572Z,36.62
2023-04-03T22:53:32.810Z,37.09
2023-04-03T22:56:01.891Z,36.95
2023-04-03T22:58:29.989Z,36.71
2023-04-03T23:01:06.618Z,37.28
2023-04-03T23:03:35.228Z,36.61
2023-04-03T23:06:03.263Z,36.55
2023-04-03T23:08:30.593Z,36.58
2023-04-03T23:10:59.009Z,36.38
2023-04-03T23:13:26.427Z,36.69
2023-04-03T23:15:54.030Z,37.05
2023-04-03T23:18:23.328Z,36.49
2023-04-03T23:20:51.187Z,36.78
2023-04-03T23:23:18.666Z,36.54
2023-04-03T23:25:46.086Z,36.81
2023-04-03T23:28:13.362Z,36.56
2023-04-03T23:30:41.004Z,36.42
2023-04-03T23:33:08.447Z,36.85
2023-04-03T23:35:42.478Z,36.88
2023-04-03T23:38:09.611Z,36.70
2023-04-03T23:40:36.666Z,36.35
2023-04-03T23:43:03.900Z,36.95
2023-04-03T23:45:31.073Z,36.64
2023-04-03T23:47:58.574Z,36.14
2023-04-03T23:50:26.033Z,36.38
2023-04-03T23:52:54.714Z,36.75
2023-04-03T23:55:21.948Z,36.60
2023-04-03T23:57:49.162Z,36.44
